sensor_id;sensor_type;location;lat;lon;timestamp;P1;durP1;ratioP1;P2;durP2;ratioP2
5060;SDS011;2549;52.128;21.068;2023-04-30T00:00:41;16.80;;;9.97;;
5060;SDS011;2549;52.128;21.068;2023-04-30T00:03:08;18.80;;;10.67;;
5060;SDS011;2549;52.128;21.068;2023-04-30T00:05:35;26.63;;;11.57;;
5060;SDS011;2549;52.128;21.068;2023-04-30T00:08:03;16.53;;;10.47;;
5060;SDS011;2549;52.128;21.068;2023-04-30T00:10:30;12.10;;;10.30;;
5060;SDS011;2549;52.128;21.068;2023-04-30T00:12:57;15.27;;;10.60;;
5060;SDS011;2549;52.128;21.068;2023-04-30T00:15:24;13.50;;;9.60;;
5060;SDS011;2549;52.128;21.068;2023-04-30T00:17:51;18.60;;;10.10;;
5060;SDS011;2549;52.128;21.068;2023-04-30T00:20:18;20.00;;;10.80;;
5060;SDS011;2549;52.128;21.068;2023-04-30T00:22:45;14.50;;;10.30;;
5060;SDS011;2549;52.128;21.068;2023-04-30T00:25:12;16.50;;;9.20;;
5060;SDS011;2549;52.128;21.068;2023-04-30T00:27:39;18.33;;;10.63;;
5060;SDS011;2549;52.128;21.068;2023-04-30T00:30:06;16.87;;;10.00;;
5060;SDS011;2549;52.128;21.068;2023-04-30T00:32:33;17.00;;;11.40;;
5060;SDS011;2549;52.128;21.068;2023-04-30T00:35:00;14.20;;;10.40;;
5060;SDS011;2549;52.128;21.068;2023-04-30T00:37:27;24.00;;;11.83;;
5060;SDS011;2549;52.128;21.068;2023-04-30T00:39:54;20.37;;;11.17;;
5060;SDS011;2549;52.128;21.068;2023-04-30T00:42:21;17.87;;;11.10;;
5060;SDS011;2549;52.128;21.068;2023-04-30T00:44:48;20.70;;;11.90;;
5060;SDS011;2549;52.128;21.068;2023-04-30T00:47:15;15.37;;;11.47;;
5060;SDS011;2549;52.128;21.068;2023-04-30T00:49:42;27.57;;;11.80;;
5060;SDS011;2549;52.128;21.068;2023-04-30T00:52:08;15.30;;;10.00;;
5060;SDS011;2549;52.128;21.068;2023-04-30T00:54:35;18.40;;;11.50;;
5060;SDS011;2549;52.128;21.068;2023-04-30T00:57:02;13.03;;;9.90;;
5060;SDS011;2549;52.128;21.068;2023-04-30T00:59:32;15.17;;;10.60;;
5060;SDS011;2549;52.128;21.068;2023-04-30T01:02:01;20.00;;;12.53;;
5060;SDS011;2549;52.128;21.068;2023-04-30T01:04:28;17.13;;;10.67;;
5060;SDS011;2549;52.128;21.068;2023-04-30T01:06:55;20.00;;;10.47;;
5060;SDS011;2549;52.128;21.068;2023-04-30T01:09:23;20.17;;;11.80;;
5060;SDS011;2549;52.128;21.068;2023-04-30T01:19:59;21.60;;;12.03;;
5060;SDS011;2549;52.128;21.068;2023-04-30T01:25:06;18.57;;;12.67;;
5060;SDS011;2549;52.128;21.068;2023-04-30T01:30:24;20.20;;;13.63;;
5060;SDS011;2549;52.128;21.068;2023-04-30T01:32:51;17.63;;;12.40;;
5060;SDS011;2549;52.128;21.068;2023-04-30T01:35:18;18.80;;;13.07;;
5060;SDS011;2549;52.128;21.068;2023-04-30T01:37:59;18.37;;;13.53;;
5060;SDS011;2549;52.128;21.068;2023-04-30T01:40:41;18.47;;;13.53;;
5060;SDS011;2549;52.128;21.068;2023-04-30T01:43:23;21.73;;;13.37;;
5060;SDS011;2549;52.128;21.068;2023-04-30T01:48:52;17.57;;;13.50;;
5060;SDS011;2549;52.128;21.068;2023-04-30T01:51:39;17.70;;;13.30;;
5060;SDS011;2549;52.128;21.068;2023-04-30T01:54:26;17.43;;;12.10;;
5060;SDS011;2549;52.128;21.068;2023-04-30T01:59:59;20.67;;;13.87;;
5060;SDS011;2549;52.128;21.068;2023-04-30T02:02:26;23.37;;;13.07;;
5060;SDS011;2549;52.128;21.068;2023-04-30T02:04:53;24.33;;;14.60;;
5060;SDS011;2549;52.128;21.068;2023-04-30T02:07:26;19.30;;;13.30;;
5060;SDS011;2549;52.128;21.068;2023-04-30T02:10:04;18.97;;;13.57;;
5060;SDS011;2549;52.128;21.068;2023-04-30T02:12:31;19.63;;;12.87;;
5060;SDS011;2549;52.128;21.068;2023-04-30T02:14:58;17.60;;;12.03;;
5060;SDS011;2549;52.128;21.068;2023-04-30T02:17:25;20.03;;;12.97;;
5060;SDS011;2549;52.128;21.068;2023-04-30T02:19:52;15.07;;;12.13;;
5060;SDS011;2549;52.128;21.068;2023-04-30T02:22:19;15.20;;;12.00;;
5060;SDS011;2549;52.128;21.068;2023-04-30T02:24:46;15.23;;;11.23;;
5060;SDS011;2549;52.128;21.068;2023-04-30T02:27:13;17.93;;;13.47;;
5060;SDS011;2549;52.128;21.068;2023-04-30T02:29:40;16.10;;;11.80;;
5060;SDS011;2549;52.128;21.068;2023-04-30T02:32:07;17.93;;;12.87;;
5060;SDS011;2549;52.128;21.068;2023-04-30T02:34:34;22.03;;;12.97;;
5060;SDS011;2549;52.128;21.068;2023-04-30T02:37:01;16.43;;;12.13;;
5060;SDS011;2549;52.128;21.068;2023-04-30T02:39:28;17.93;;;13.07;;
5060;SDS011;2549;52.128;21.068;2023-04-30T02:41:55;14.50;;;11.77;;
5060;SDS011;2549;52.128;21.068;2023-04-30T02:44:22;19.63;;;13.73;;
5060;SDS011;2549;52.128;21.068;2023-04-30T02:46:49;19.10;;;13.20;;
5060;SDS011;2549;52.128;21.068;2023-04-30T02:49:16;20.83;;;13.50;;
5060;SDS011;2549;52.128;21.068;2023-04-30T02:51:43;21.70;;;13.90;;
5060;SDS011;2549;52.128;21.068;2023-04-30T02:54:10;18.07;;;13.60;;
5060;SDS011;2549;52.128;21.068;2023-04-30T02:56:37;19.97;;;12.97;;
5060;SDS011;2549;52.128;21.068;2023-04-30T02:59:06;19.67;;;12.70;;
5060;SDS011;2549;52.128;21.068;2023-04-30T03:01:33;17.80;;;11.87;;
5060;SDS011;2549;52.128;21.068;2023-04-30T03:04:00;16.60;;;12.30;;
5060;SDS011;2549;52.128;21.068;2023-04-30T03:06:29;16.17;;;12.73;;
5060;SDS011;2549;52.128;21.068;2023-04-30T03:08:56;18.80;;;12.60;;
5060;SDS011;2549;52.128;21.068;2023-04-30T03:11:23;17.13;;;11.50;;
5060;SDS011;2549;52.128;21.068;2023-04-30T03:13:50;15.20;;;11.63;;
5060;SDS011;2549;52.128;21.068;2023-04-30T03:16:18;18.43;;;12.23;;
5060;SDS011;2549;52.128;21.068;2023-04-30T03:18:46;13.63;;;12.23;;
5060;SDS011;2549;52.128;21.068;2023-04-30T03:21:14;16.20;;;12.40;;
5060;SDS011;2549;52.128;21.068;2023-04-30T03:23:41;21.33;;;13.20;;
5060;SDS011;2549;52.128;21.068;2023-04-30T03:26:08;18.10;;;13.40;;
5060;SDS011;2549;52.128;21.068;2023-04-30T03:28:34;23.97;;;13.10;;
5060;SDS011;2549;52.128;21.068;2023-04-30T03:31:01;17.70;;;12.53;;
5060;SDS011;2549;52.128;21.068;2023-04-30T03:33:31;19.20;;;12.40;;
5060;SDS011;2549;52.128;21.068;2023-04-30T03:35:58;14.60;;;12.10;;
5060;SDS011;2549;52.128;21.068;2023-04-30T03:38:25;15.87;;;12.00;;
5060;SDS011;2549;52.128;21.068;2023-04-30T03:40:52;13.90;;;9.80;;
5060;SDS011;2549;52.128;21.068;2023-04-30T03:43:19;14.10;;;10.40;;
5060;SDS011;2549;52.128;21.068;2023-04-30T03:45:45;12.70;;;9.47;;
5060;SDS011;2549;52.128;21.068;2023-04-30T03:48:13;14.97;;;10.40;;
5060;SDS011;2549;52.128;21.068;2023-04-30T03:50:40;12.43;;;9.40;;
5060;SDS011;2549;52.128;21.068;2023-04-30T03:53:06;13.80;;;9.83;;
5060;SDS011;2549;52.128;21.068;2023-04-30T03:55:33;13.43;;;10.00;;
5060;SDS011;2549;52.128;21.068;2023-04-30T03:58:00;13.23;;;9.87;;
5060;SDS011;2549;52.128;21.068;2023-04-30T04:00:27;13.67;;;10.57;;
5060;SDS011;2549;52.128;21.068;2023-04-30T04:02:55;16.00;;;11.37;;
5060;SDS011;2549;52.128;21.068;2023-04-30T04:05:23;15.50;;;12.70;;
5060;SDS011;2549;52.128;21.068;2023-04-30T04:07:51;17.87;;;13.60;;
5060;SDS011;2549;52.128;21.068;2023-04-30T04:10:18;17.30;;;13.23;;
5060;SDS011;2549;52.128;21.068;2023-04-30T04:12:45;18.20;;;11.87;;
5060;SDS011;2549;52.128;21.068;2023-04-30T04:15:11;15.43;;;10.90;;
5060;SDS011;2549;52.128;21.068;2023-04-30T04:17:38;12.33;;;9.90;;
5060;SDS011;2549;52.128;21.068;2023-04-30T04:20:06;10.97;;;7.60;;
5060;SDS011;2549;52.128;21.068;2023-04-30T04:22:33;13.07;;;8.67;;
5060;SDS011;2549;52.128;21.068;2023-04-30T04:25:00;8.27;;;6.57;;
5060;SDS011;2549;52.128;21.068;2023-04-30T04:27:27;5.80;;;5.20;;
5060;SDS011;2549;52.128;21.068;2023-04-30T04:29:54;11.43;;;5.23;;
5060;SDS011;2549;52.128;21.068;2023-04-30T04:32:21;10.07;;;4.77;;
5060;SDS011;2549;52.128;21.068;2023-04-30T04:34:48;5.90;;;4.30;;
5060;SDS011;2549;52.128;21.068;2023-04-30T04:37:15;5.53;;;4.53;;
5060;SDS011;2549;52.128;21.068;2023-04-30T04:39:42;7.27;;;4.43;;
5060;SDS011;2549;52.128;21.068;2023-04-30T04:42:10;6.77;;;5.30;;
5060;SDS011;2549;52.128;21.068;2023-04-30T04:44:37;7.50;;;4.80;;
5060;SDS011;2549;52.128;21.068;2023-04-30T04:47:04;5.37;;;4.37;;
5060;SDS011;2549;52.128;21.068;2023-04-30T04:49:31;9.70;;;4.53;;
5060;SDS011;2549;52.128;21.068;2023-04-30T04:51:58;11.27;;;4.47;;
5060;SDS011;2549;52.128;21.068;2023-04-30T04:54:25;6.23;;;4.20;;
5060;SDS011;2549;52.128;21.068;2023-04-30T04:56:51;4.00;;;3.70;;
5060;SDS011;2549;52.128;21.068;2023-04-30T04:59:18;6.70;;;4.60;;
5060;SDS011;2549;52.128;21.068;2023-04-30T05:01:46;12.73;;;4.37;;
5060;SDS011;2549;52.128;21.068;2023-04-30T05:04:13;7.03;;;5.00;;
5060;SDS011;2549;52.128;21.068;2023-04-30T05:06:40;4.97;;;4.15;;
5060;SDS011;2549;52.128;21.068;2023-04-30T05:09:08;9.07;;;5.20;;
5060;SDS011;2549;52.128;21.068;2023-04-30T05:11:35;8.53;;;5.23;;
5060;SDS011;2549;52.128;21.068;2023-04-30T05:14:01;9.93;;;4.90;;
5060;SDS011;2549;52.128;21.068;2023-04-30T05:16:28;7.50;;;5.10;;
5060;SDS011;2549;52.128;21.068;2023-04-30T05:18:55;7.80;;;4.93;;
5060;SDS011;2549;52.128;21.068;2023-04-30T05:21:22;6.40;;;5.30;;
5060;SDS011;2549;52.128;21.068;2023-04-30T05:23:51;9.70;;;5.70;;
5060;SDS011;2549;52.128;21.068;2023-04-30T05:26:17;7.75;;;4.70;;
5060;SDS011;2549;52.128;21.068;2023-04-30T05:28:44;8.10;;;5.97;;
5060;SDS011;2549;52.128;21.068;2023-04-30T05:31:11;7.57;;;4.83;;
5060;SDS011;2549;52.128;21.068;2023-04-30T05:33:38;9.07;;;4.87;;
5060;SDS011;2549;52.128;21.068;2023-04-30T05:36:06;6.43;;;5.50;;
5060;SDS011;2549;52.128;21.068;2023-04-30T05:38:33;8.43;;;5.37;;
5060;SDS011;2549;52.128;21.068;2023-04-30T05:40:59;10.60;;;6.13;;
5060;SDS011;2549;52.128;21.068;2023-04-30T05:43:26;9.90;;;5.30;;
5060;SDS011;2549;52.128;21.068;2023-04-30T05:45:53;6.80;;;5.30;;
5060;SDS011;2549;52.128;21.068;2023-04-30T05:48:20;6.20;;;4.90;;
5060;SDS011;2549;52.128;21.068;2023-04-30T05:50:47;7.53;;;5.73;;
5060;SDS011;2549;52.128;21.068;2023-04-30T05:53:14;11.30;;;6.10;;
5060;SDS011;2549;52.128;21.068;2023-04-30T05:55:41;8.70;;;6.20;;
5060;SDS011;2549;52.128;21.068;2023-04-30T05:58:08;9.30;;;6.57;;
5060;SDS011;2549;52.128;21.068;2023-04-30T06:00:35;12.27;;;7.70;;
5060;SDS011;2549;52.128;21.068;2023-04-30T06:03:02;8.23;;;6.77;;
5060;SDS011;2549;52.128;21.068;2023-04-30T06:05:29;18.53;;;7.20;;
5060;SDS011;2549;52.128;21.068;2023-04-30T06:07:56;8.60;;;7.07;;
5060;SDS011;2549;52.128;21.068;2023-04-30T06:10:23;9.63;;;7.10;;
5060;SDS011;2549;52.128;21.068;2023-04-30T06:12:50;7.60;;;6.72;;
5060;SDS011;2549;52.128;21.068;2023-04-30T06:15:17;8.93;;;6.40;;
5060;SDS011;2549;52.128;21.068;2023-04-30T06:17:44;7.37;;;6.17;;
5060;SDS011;2549;52.128;21.068;2023-04-30T06:20:11;8.93;;;6.20;;
5060;SDS011;2549;52.128;21.068;2023-04-30T06:22:39;13.77;;;7.50;;
5060;SDS011;2549;52.128;21.068;2023-04-30T06:25:07;10.33;;;7.40;;
5060;SDS011;2549;52.128;21.068;2023-04-30T06:27:34;9.80;;;7.30;;
5060;SDS011;2549;52.128;21.068;2023-04-30T06:30:01;12.80;;;7.30;;
5060;SDS011;2549;52.128;21.068;2023-04-30T06:32:28;11.60;;;7.50;;
5060;SDS011;2549;52.128;21.068;2023-04-30T06:34:55;9.38;;;7.43;;
5060;SDS011;2549;52.128;21.068;2023-04-30T06:37:22;10.47;;;6.33;;
5060;SDS011;2549;52.128;21.068;2023-04-30T06:39:49;13.30;;;7.57;;
5060;SDS011;2549;52.128;21.068;2023-04-30T06:42:16;10.23;;;7.33;;
5060;SDS011;2549;52.128;21.068;2023-04-30T06:44:43;13.35;;;7.60;;
5060;SDS011;2549;52.128;21.068;2023-04-30T06:47:11;13.50;;;7.57;;
5060;SDS011;2549;52.128;21.068;2023-04-30T06:49:38;9.00;;;6.97;;
5060;SDS011;2549;52.128;21.068;2023-04-30T06:52:05;10.50;;;6.47;;
5060;SDS011;2549;52.128;21.068;2023-04-30T06:54:31;11.98;;;6.05;;
5060;SDS011;2549;52.128;21.068;2023-04-30T06:56:58;9.87;;;6.97;;
5060;SDS011;2549;52.128;21.068;2023-04-30T06:59:25;14.80;;;6.17;;
5060;SDS011;2549;52.128;21.068;2023-04-30T07:01:52;10.37;;;6.87;;
5060;SDS011;2549;52.128;21.068;2023-04-30T07:04:19;14.10;;;7.80;;
5060;SDS011;2549;52.128;21.068;2023-04-30T07:06:46;14.00;;;8.90;;
5060;SDS011;2549;52.128;21.068;2023-04-30T07:09:13;12.70;;;9.53;;
5060;SDS011;2549;52.128;21.068;2023-04-30T07:11:41;19.23;;;10.00;;
5060;SDS011;2549;52.128;21.068;2023-04-30T07:14:08;14.40;;;10.10;;
5060;SDS011;2549;52.128;21.068;2023-04-30T07:16:34;15.37;;;10.90;;
5060;SDS011;2549;52.128;21.068;2023-04-30T07:19:01;12.93;;;9.20;;
5060;SDS011;2549;52.128;21.068;2023-04-30T07:21:28;12.27;;;8.57;;
5060;SDS011;2549;52.128;21.068;2023-04-30T07:23:57;12.53;;;8.10;;
5060;SDS011;2549;52.128;21.068;2023-04-30T07:26:24;10.63;;;7.80;;
5060;SDS011;2549;52.128;21.068;2023-04-30T07:28:51;12.13;;;7.70;;
5060;SDS011;2549;52.128;21.068;2023-04-30T07:31:18;11.50;;;7.07;;
5060;SDS011;2549;52.128;21.068;2023-04-30T07:33:45;14.87;;;6.03;;
5060;SDS011;2549;52.128;21.068;2023-04-30T07:36:12;19.63;;;6.03;;
5060;SDS011;2549;52.128;21.068;2023-04-30T07:38:39;5.43;;;4.30;;
5060;SDS011;2549;52.128;21.068;2023-04-30T07:41:06;7.57;;;3.53;;
5060;SDS011;2549;52.128;21.068;2023-04-30T07:43:34;4.67;;;2.93;;
5060;SDS011;2549;52.128;21.068;2023-04-30T07:46:01;6.30;;;3.13;;
5060;SDS011;2549;52.128;21.068;2023-04-30T07:48:29;6.97;;;3.77;;
5060;SDS011;2549;52.128;21.068;2023-04-30T07:50:56;5.40;;;3.47;;
5060;SDS011;2549;52.128;21.068;2023-04-30T07:53:23;4.40;;;3.23;;
5060;SDS011;2549;52.128;21.068;2023-04-30T07:55:50;4.03;;;3.40;;
5060;SDS011;2549;52.128;21.068;2023-04-30T07:58:17;5.90;;;3.60;;
5060;SDS011;2549;52.128;21.068;2023-04-30T08:00:44;7.07;;;3.40;;
5060;SDS011;2549;52.128;21.068;2023-04-30T08:03:11;5.30;;;2.80;;
5060;SDS011;2549;52.128;21.068;2023-04-30T08:05:38;5.53;;;3.07;;
5060;SDS011;2549;52.128;21.068;2023-04-30T08:08:06;4.37;;;3.20;;
5060;SDS011;2549;52.128;21.068;2023-04-30T08:10:33;10.10;;;4.03;;
5060;SDS011;2549;52.128;21.068;2023-04-30T08:13:00;7.33;;;3.47;;
5060;SDS011;2549;52.128;21.068;2023-04-30T08:15:27;7.60;;;3.70;;
5060;SDS011;2549;52.128;21.068;2023-04-30T08:17:55;6.40;;;3.80;;
5060;SDS011;2549;52.128;21.068;2023-04-30T08:20:22;4.80;;;2.50;;
5060;SDS011;2549;52.128;21.068;2023-04-30T08:22:49;5.27;;;3.13;;
5060;SDS011;2549;52.128;21.068;2023-04-30T08:25:16;4.57;;;2.90;;
5060;SDS011;2549;52.128;21.068;2023-04-30T08:27:43;3.03;;;2.73;;
5060;SDS011;2549;52.128;21.068;2023-04-30T08:30:10;8.80;;;2.70;;
5060;SDS011;2549;52.128;21.068;2023-04-30T08:32:37;10.60;;;2.57;;
5060;SDS011;2549;52.128;21.068;2023-04-30T08:35:04;4.73;;;2.50;;
5060;SDS011;2549;52.128;21.068;2023-04-30T08:37:32;10.03;;;2.97;;
5060;SDS011;2549;52.128;21.068;2023-04-30T08:39:59;6.20;;;3.13;;
5060;SDS011;2549;52.128;21.068;2023-04-30T08:42:35;8.47;;;3.23;;
5060;SDS011;2549;52.128;21.068;2023-04-30T08:45:03;4.23;;;3.00;;
5060;SDS011;2549;52.128;21.068;2023-04-30T08:47:30;12.33;;;3.60;;
5060;SDS011;2549;52.128;21.068;2023-04-30T08:49:57;7.03;;;2.87;;
5060;SDS011;2549;52.128;21.068;2023-04-30T08:52:24;5.20;;;2.97;;
5060;SDS011;2549;52.128;21.068;2023-04-30T08:54:53;3.50;;;2.53;;
5060;SDS011;2549;52.128;21.068;2023-04-30T08:57:22;5.23;;;2.90;;
5060;SDS011;2549;52.128;21.068;2023-04-30T08:59:49;2.83;;;2.40;;
5060;SDS011;2549;52.128;21.068;2023-04-30T09:02:16;2.57;;;2.37;;
5060;SDS011;2549;52.128;21.068;2023-04-30T09:04:43;2.40;;;2.20;;
5060;SDS011;2549;52.128;21.068;2023-04-30T09:07:11;3.30;;;2.00;;
5060;SDS011;2549;52.128;21.068;2023-04-30T09:09:39;4.10;;;2.20;;
5060;SDS011;2549;52.128;21.068;2023-04-30T09:12:13;4.20;;;2.20;;
5060;SDS011;2549;52.128;21.068;2023-04-30T09:17:30;9.43;;;3.83;;
5060;SDS011;2549;52.128;21.068;2023-04-30T09:20:09;5.00;;;1.90;;
5060;SDS011;2549;52.128;21.068;2023-04-30T09:22:37;3.93;;;2.17;;
5060;SDS011;2549;52.128;21.068;2023-04-30T09:25:06;6.10;;;1.87;;
5060;SDS011;2549;52.128;21.068;2023-04-30T09:27:34;6.80;;;1.83;;
5060;SDS011;2549;52.128;21.068;2023-04-30T09:30:01;6.97;;;2.47;;
5060;SDS011;2549;52.128;21.068;2023-04-30T09:32:28;5.13;;;1.63;;
5060;SDS011;2549;52.128;21.068;2023-04-30T09:34:55;2.20;;;1.87;;
5060;SDS011;2549;52.128;21.068;2023-04-30T09:37:33;3.10;;;1.80;;
5060;SDS011;2549;52.128;21.068;2023-04-30T09:40:04;4.20;;;1.87;;
5060;SDS011;2549;52.128;21.068;2023-04-30T09:42:31;3.90;;;1.80;;
5060;SDS011;2549;52.128;21.068;2023-04-30T09:44:58;4.33;;;2.10;;
5060;SDS011;2549;52.128;21.068;2023-04-30T09:47:26;3.53;;;1.70;;
5060;SDS011;2549;52.128;21.068;2023-04-30T09:49:57;4.13;;;1.63;;
5060;SDS011;2549;52.128;21.068;2023-04-30T09:52:25;5.67;;;1.70;;
5060;SDS011;2549;52.128;21.068;2023-04-30T09:54:52;4.10;;;1.90;;
5060;SDS011;2549;52.128;21.068;2023-04-30T09:57:20;2.03;;;1.50;;
5060;SDS011;2549;52.128;21.068;2023-04-30T09:59:49;2.60;;;1.40;;
5060;SDS011;2549;52.128;21.068;2023-04-30T10:02:19;4.10;;;1.30;;
5060;SDS011;2549;52.128;21.068;2023-04-30T10:04:55;1.37;;;1.27;;
5060;SDS011;2549;52.128;21.068;2023-04-30T10:07:24;2.23;;;1.40;;
5060;SDS011;2549;52.128;21.068;2023-04-30T10:10:03;3.60;;;2.03;;
5060;SDS011;2549;52.128;21.068;2023-04-30T10:12:42;5.30;;;1.90;;
5060;SDS011;2549;52.128;21.068;2023-04-30T10:15:36;4.03;;;1.37;;
5060;SDS011;2549;52.128;21.068;2023-04-30T10:18:10;5.40;;;1.80;;
5060;SDS011;2549;52.128;21.068;2023-04-30T10:20:42;1.40;;;1.30;;
5060;SDS011;2549;52.128;21.068;2023-04-30T10:23:14;4.87;;;1.50;;
5060;SDS011;2549;52.128;21.068;2023-04-30T10:25:41;1.50;;;1.40;;
5060;SDS011;2549;52.128;21.068;2023-04-30T10:28:10;1.40;;;1.33;;
5060;SDS011;2549;52.128;21.068;2023-04-30T10:30:37;1.93;;;1.77;;
5060;SDS011;2549;52.128;21.068;2023-04-30T10:36:01;2.80;;;2.20;;
5060;SDS011;2549;52.128;21.068;2023-04-30T10:38:31;2.20;;;2.00;;
5060;SDS011;2549;52.128;21.068;2023-04-30T10:40:59;3.90;;;2.00;;
5060;SDS011;2549;52.128;21.068;2023-04-30T10:43:29;4.20;;;1.90;;
5060;SDS011;2549;52.128;21.068;2023-04-30T10:45:56;2.13;;;1.87;;
5060;SDS011;2549;52.128;21.068;2023-04-30T10:48:24;6.30;;;1.80;;
5060;SDS011;2549;52.128;21.068;2023-04-30T10:50:54;7.73;;;1.43;;
5060;SDS011;2549;52.128;21.068;2023-04-30T10:53:22;2.87;;;1.97;;
5060;SDS011;2549;52.128;21.068;2023-04-30T10:56:02;5.23;;;1.60;;
5060;SDS011;2549;52.128;21.068;2023-04-30T10:58:35;3.77;;;1.47;;
5060;SDS011;2549;52.128;21.068;2023-04-30T11:01:06;3.13;;;1.20;;
5060;SDS011;2549;52.128;21.068;2023-04-30T11:03:41;2.50;;;1.20;;
5060;SDS011;2549;52.128;21.068;2023-04-30T11:06:27;2.17;;;1.10;;
5060;SDS011;2549;52.128;21.068;2023-04-30T11:09:23;2.60;;;1.43;;
5060;SDS011;2549;52.128;21.068;2023-04-30T11:12:09;1.63;;;1.37;;
5060;SDS011;2549;52.128;21.068;2023-04-30T11:14:41;1.30;;;1.30;;
5060;SDS011;2549;52.128;21.068;2023-04-30T11:17:10;3.90;;;1.37;;
5060;SDS011;2549;52.128;21.068;2023-04-30T11:19:58;4.27;;;1.50;;
5060;SDS011;2549;52.128;21.068;2023-04-30T11:22:26;8.87;;;1.20;;
5060;SDS011;2549;52.128;21.068;2023-04-30T11:27:25;6.27;;;1.20;;
5060;SDS011;2549;52.128;21.068;2023-04-30T11:29:54;5.37;;;1.60;;
5060;SDS011;2549;52.128;21.068;2023-04-30T11:32:24;1.43;;;1.33;;
5060;SDS011;2549;52.128;21.068;2023-04-30T11:34:53;2.00;;;1.13;;
5060;SDS011;2549;52.128;21.068;2023-04-30T11:37:22;3.23;;;1.47;;
5060;SDS011;2549;52.128;21.068;2023-04-30T11:39:59;3.43;;;1.70;;
5060;SDS011;2549;52.128;21.068;2023-04-30T11:42:28;2.90;;;1.17;;
5060;SDS011;2549;52.128;21.068;2023-04-30T11:45:03;1.83;;;1.10;;
5060;SDS011;2549;52.128;21.068;2023-04-30T11:47:46;1.30;;;1.20;;
5060;SDS011;2549;52.128;21.068;2023-04-30T11:50:16;2.77;;;1.30;;
5060;SDS011;2549;52.128;21.068;2023-04-30T11:52:48;2.97;;;1.33;;
5060;SDS011;2549;52.128;21.068;2023-04-30T11:55:17;3.63;;;1.50;;
5060;SDS011;2549;52.128;21.068;2023-04-30T11:57:45;6.30;;;1.27;;
5060;SDS011;2549;52.128;21.068;2023-04-30T12:00:17;4.63;;;1.33;;
5060;SDS011;2549;52.128;21.068;2023-04-30T12:02:46;1.10;;;1.00;;
5060;SDS011;2549;52.128;21.068;2023-04-30T12:05:18;3.57;;;1.37;;
5060;SDS011;2549;52.128;21.068;2023-04-30T12:07:47;5.10;;;1.23;;
5060;SDS011;2549;52.128;21.068;2023-04-30T12:10:33;2.83;;;1.20;;
5060;SDS011;2549;52.128;21.068;2023-04-30T12:13:01;1.37;;;1.23;;
5060;SDS011;2549;52.128;21.068;2023-04-30T12:15:28;7.03;;;1.73;;
5060;SDS011;2549;52.128;21.068;2023-04-30T12:17:55;2.50;;;1.37;;
5060;SDS011;2549;52.128;21.068;2023-04-30T12:20:24;4.93;;;1.30;;
5060;SDS011;2549;52.128;21.068;2023-04-30T12:22:53;1.37;;;1.00;;
5060;SDS011;2549;52.128;21.068;2023-04-30T12:25:21;2.43;;;1.20;;
5060;SDS011;2549;52.128;21.068;2023-04-30T12:27:49;1.57;;;1.40;;
5060;SDS011;2549;52.128;21.068;2023-04-30T12:30:18;2.10;;;1.50;;
5060;SDS011;2549;52.128;21.068;2023-04-30T12:32:48;3.53;;;1.47;;
5060;SDS011;2549;52.128;21.068;2023-04-30T12:35:17;1.90;;;1.27;;
5060;SDS011;2549;52.128;21.068;2023-04-30T12:37:47;3.50;;;1.40;;
5060;SDS011;2549;52.128;21.068;2023-04-30T12:40:20;4.53;;;1.30;;
5060;SDS011;2549;52.128;21.068;2023-04-30T12:42:58;6.30;;;1.30;;
5060;SDS011;2549;52.128;21.068;2023-04-30T12:45:46;2.90;;;1.30;;
5060;SDS011;2549;52.128;21.068;2023-04-30T12:48:18;1.33;;;1.23;;
5060;SDS011;2549;52.128;21.068;2023-04-30T12:50:50;2.17;;;1.20;;
5060;SDS011;2549;52.128;21.068;2023-04-30T12:53:21;1.50;;;1.40;;
5060;SDS011;2549;52.128;21.068;2023-04-30T12:58:49;4.13;;;1.47;;
5060;SDS011;2549;52.128;21.068;2023-04-30T13:01:17;1.80;;;1.37;;
5060;SDS011;2549;52.128;21.068;2023-04-30T13:03:48;2.33;;;1.03;;
5060;SDS011;2549;52.128;21.068;2023-04-30T13:06:16;3.20;;;1.30;;
5060;SDS011;2549;52.128;21.068;2023-04-30T13:08:43;2.20;;;1.40;;
5060;SDS011;2549;52.128;21.068;2023-04-30T13:11:24;7.13;;;1.80;;
5060;SDS011;2549;52.128;21.068;2023-04-30T13:13:52;2.13;;;1.23;;
5060;SDS011;2549;52.128;21.068;2023-04-30T13:16:22;1.47;;;1.33;;
5060;SDS011;2549;52.128;21.068;2023-04-30T13:18:52;1.87;;;1.03;;
5060;SDS011;2549;52.128;21.068;2023-04-30T13:21:20;3.17;;;1.30;;
5060;SDS011;2549;52.128;21.068;2023-04-30T13:23:47;1.57;;;1.20;;
5060;SDS011;2549;52.128;21.068;2023-04-30T13:26:19;17.83;;;1.93;;
5060;SDS011;2549;52.128;21.068;2023-04-30T13:28:47;2.70;;;1.40;;
5060;SDS011;2549;52.128;21.068;2023-04-30T13:31:13;4.00;;;1.73;;
5060;SDS011;2549;52.128;21.068;2023-04-30T13:33:41;1.20;;;1.10;;
5060;SDS011;2549;52.128;21.068;2023-04-30T13:36:07;5.93;;;1.80;;
5060;SDS011;2549;52.128;21.068;2023-04-30T13:38:35;10.37;;;1.50;;
5060;SDS011;2549;52.128;21.068;2023-04-30T13:41:01;2.37;;;1.50;;
5060;SDS011;2549;52.128;21.068;2023-04-30T13:43:28;2.00;;;1.50;;
5060;SDS011;2549;52.128;21.068;2023-04-30T13:45:56;8.33;;;1.40;;
5060;SDS011;2549;52.128;21.068;2023-04-30T13:48:27;1.67;;;1.00;;
5060;SDS011;2549;52.128;21.068;2023-04-30T13:50:53;3.03;;;1.20;;
5060;SDS011;2549;52.128;21.068;2023-04-30T13:53:20;1.37;;;1.27;;
5060;SDS011;2549;52.128;21.068;2023-04-30T13:55:47;3.17;;;1.13;;
5060;SDS011;2549;52.128;21.068;2023-04-30T13:58:14;2.50;;;1.10;;
5060;SDS011;2549;52.128;21.068;2023-04-30T14:00:41;1.23;;;1.10;;
5060;SDS011;2549;52.128;21.068;2023-04-30T14:03:08;3.03;;;1.33;;
5060;SDS011;2549;52.128;21.068;2023-04-30T14:05:36;1.13;;;1.13;;
5060;SDS011;2549;52.128;21.068;2023-04-30T14:08:04;1.90;;;1.00;;
5060;SDS011;2549;52.128;21.068;2023-04-30T14:10:31;1.80;;;1.70;;
5060;SDS011;2549;52.128;21.068;2023-04-30T14:12:58;2.90;;;1.70;;
5060;SDS011;2549;52.128;21.068;2023-04-30T14:15:25;3.43;;;1.33;;
5060;SDS011;2549;52.128;21.068;2023-04-30T14:17:55;1.80;;;1.53;;
5060;SDS011;2549;52.128;21.068;2023-04-30T14:20:22;1.90;;;1.20;;
5060;SDS011;2549;52.128;21.068;2023-04-30T14:22:50;4.93;;;1.37;;
5060;SDS011;2549;52.128;21.068;2023-04-30T14:25:17;3.53;;;1.57;;
5060;SDS011;2549;52.128;21.068;2023-04-30T14:27:44;3.50;;;1.30;;
5060;SDS011;2549;52.128;21.068;2023-04-30T14:30:11;6.63;;;1.30;;
5060;SDS011;2549;52.128;21.068;2023-04-30T14:32:38;4.43;;;1.50;;
5060;SDS011;2549;52.128;21.068;2023-04-30T14:35:05;1.50;;;1.40;;
5060;SDS011;2549;52.128;21.068;2023-04-30T14:37:33;2.47;;;1.00;;
5060;SDS011;2549;52.128;21.068;2023-04-30T14:39:59;5.93;;;1.47;;
5060;SDS011;2549;52.128;21.068;2023-04-30T14:42:27;1.40;;;1.20;;
5060;SDS011;2549;52.128;21.068;2023-04-30T14:44:54;1.60;;;0.93;;
5060;SDS011;2549;52.128;21.068;2023-04-30T14:47:21;1.53;;;0.93;;
5060;SDS011;2549;52.128;21.068;2023-04-30T14:49:52;1.10;;;1.00;;
5060;SDS011;2549;52.128;21.068;2023-04-30T14:52:20;3.63;;;1.33;;
5060;SDS011;2549;52.128;21.068;2023-04-30T14:54:47;1.43;;;1.07;;
5060;SDS011;2549;52.128;21.068;2023-04-30T14:57:14;3.93;;;1.93;;
5060;SDS011;2549;52.128;21.068;2023-04-30T14:59:42;5.30;;;1.57;;
5060;SDS011;2549;52.128;21.068;2023-04-30T15:02:09;2.50;;;1.03;;
5060;SDS011;2549;52.128;21.068;2023-04-30T15:04:36;2.00;;;1.37;;
5060;SDS011;2549;52.128;21.068;2023-04-30T15:07:03;3.77;;;1.70;;
5060;SDS011;2549;52.128;21.068;2023-04-30T15:09:30;1.90;;;1.20;;
5060;SDS011;2549;52.128;21.068;2023-04-30T15:11:57;3.80;;;1.10;;
5060;SDS011;2549;52.128;21.068;2023-04-30T15:14:24;4.93;;;1.30;;
5060;SDS011;2549;52.128;21.068;2023-04-30T15:16:50;0.80;;;0.80;;
5060;SDS011;2549;52.128;21.068;2023-04-30T15:19:17;1.10;;;1.10;;
5060;SDS011;2549;52.128;21.068;2023-04-30T15:21:44;5.00;;;1.63;;
5060;SDS011;2549;52.128;21.068;2023-04-30T15:24:14;2.20;;;1.10;;
5060;SDS011;2549;52.128;21.068;2023-04-30T15:26:41;3.70;;;1.30;;
5060;SDS011;2549;52.128;21.068;2023-04-30T15:29:08;4.00;;;1.67;;
5060;SDS011;2549;52.128;21.068;2023-04-30T15:31:35;4.10;;;1.20;;